sensor_id;sensor_type;location;lat;lon;timestamp;P1;durP1;ratioP1;P2;durP2;ratioP2
75744;SDS011;64359;51.366;-0.222;2023-05-01T00:00:53;3.00;;;2.80;;
75744;SDS011;64359;51.366;-0.222;2023-05-01T00:01:58;4.00;;;3.60;;
75744;SDS011;64359;51.366;-0.222;2023-05-01T00:03:02;3.90;;;3.60;;
75744;SDS011;64359;51.366;-0.222;2023-05-01T00:04:07;3.40;;;3.10;;
75744;SDS011;64359;51.366;-0.222;2023-05-01T00:05:11;3.90;;;3.60;;
75744;SDS011;64359;51.366;-0.222;2023-05-01T00:06:15;3.70;;;3.40;;
75744;SDS011;64359;51.366;-0.222;2023-05-01T00:07:20;3.80;;;3.30;;
75744;SDS011;64359;51.366;-0.222;2023-05-01T00:08:24;3.90;;;3.60;;
75744;SDS011;64359;51.366;-0.222;2023-05-01T00:09:29;3.20;;;2.90;;
75744;SDS011;64359;51.366;-0.222;2023-05-01T00:10:35;3.70;;;3.10;;
75744;SDS011;64359;51.366;-0.222;2023-05-01T00:11:39;3.20;;;2.90;;
75744;SDS011;64359;51.366;-0.222;2023-05-01T00:12:43;3.60;;;3.30;;
75744;SDS011;64359;51.366;-0.222;2023-05-01T00:13:48;3.70;;;3.40;;
75744;SDS011;64359;51.366;-0.222;2023-05-01T00:14:53;3.70;;;3.30;;
75744;SDS011;64359;51.366;-0.222;2023-05-01T00:15:57;4.20;;;3.80;;
75744;SDS011;64359;51.366;-0.222;2023-05-01T00:17:02;3.10;;;2.80;;
75744;SDS011;64359;51.366;-0.222;2023-05-01T00:18:07;3.80;;;3.50;;
75744;SDS011;64359;51.366;-0.222;2023-05-01T00:19:11;4.70;;;3.30;;
75744;SDS011;64359;51.366;-0.222;2023-05-01T00:20:18;3.90;;;3.60;;
75744;SDS011;64359;51.366;-0.222;2023-05-01T00:21:24;3.10;;;2.80;;
75744;SDS011;64359;51.366;-0.222;2023-05-01T00:22:29;3.80;;;3.50;;
75744;SDS011;64359;51.366;-0.222;2023-05-01T00:23:33;4.10;;;3.70;;
75744;SDS011;64359;51.366;-0.222;2023-05-01T00:24:37;3.60;;;3.30;;
75744;SDS011;64359;51.366;-0.222;2023-05-01T00:25:42;4.00;;;3.60;;
75744;SDS011;64359;51.366;-0.222;2023-05-01T00:26:46;3.80;;;3.40;;
75744;SDS011;64359;51.366;-0.222;2023-05-01T00:27:50;3.80;;;3.50;;
75744;SDS011;64359;51.366;-0.222;2023-05-01T00:28:55;4.20;;;3.80;;
75744;SDS011;64359;51.366;-0.222;2023-05-01T00:29:59;4.00;;;3.30;;
75744;SDS011;64359;51.366;-0.222;2023-05-01T00:31:04;3.30;;;3.00;;
75744;SDS011;64359;51.366;-0.222;2023-05-01T00:32:08;3.90;;;3.50;;
75744;SDS011;64359;51.366;-0.222;2023-05-01T00:33:13;4.30;;;3.70;;
75744;SDS011;64359;51.366;-0.222;2023-05-01T00:34:17;3.70;;;3.40;;
75744;SDS011;64359;51.366;-0.222;2023-05-01T00:35:21;3.70;;;3.30;;
75744;SDS011;64359;51.366;-0.222;2023-05-01T00:36:26;5.00;;;4.60;;
75744;SDS011;64359;51.366;-0.222;2023-05-01T00:37:30;3.90;;;3.60;;
75744;SDS011;64359;51.366;-0.222;2023-05-01T00:38:35;4.20;;;3.80;;
75744;SDS011;64359;51.366;-0.222;2023-05-01T00:39:39;4.30;;;3.90;;
75744;SDS011;64359;51.366;-0.222;2023-05-01T00:40:43;4.40;;;3.90;;
75744;SDS011;64359;51.366;-0.222;2023-05-01T00:41:48;4.20;;;3.90;;
75744;SDS011;64359;51.366;-0.222;2023-05-01T00:42:53;3.70;;;3.40;;
75744;SDS011;64359;51.366;-0.222;2023-05-01T00:43:57;4.10;;;3.80;;
75744;SDS011;64359;51.366;-0.222;2023-05-01T00:45:02;4.30;;;3.90;;
75744;SDS011;64359;51.366;-0.222;2023-05-01T00:46:07;4.50;;;3.60;;
75744;SDS011;64359;51.366;-0.222;2023-05-01T00:47:12;3.40;;;3.10;;
75744;SDS011;64359;51.366;-0.222;2023-05-01T00:48:16;4.70;;;4.30;;
75744;SDS011;64359;51.366;-0.222;2023-05-01T00:49:21;4.10;;;3.70;;
75744;SDS011;64359;51.366;-0.222;2023-05-01T00:50:25;3.70;;;3.30;;
75744;SDS011;64359;51.366;-0.222;2023-05-01T00:51:30;3.80;;;3.40;;
75744;SDS011;64359;51.366;-0.222;2023-05-01T00:52:34;4.00;;;3.50;;
75744;SDS011;64359;51.366;-0.222;2023-05-01T00:53:40;3.80;;;3.20;;
75744;SDS011;64359;51.366;-0.222;2023-05-01T00:54:44;3.40;;;3.10;;
75744;SDS011;64359;51.366;-0.222;2023-05-01T00:55:52;3.60;;;3.30;;
75744;SDS011;64359;51.366;-0.222;2023-05-01T00:56:58;3.90;;;3.50;;
75744;SDS011;64359;51.366;-0.222;2023-05-01T00:58:02;4.10;;;3.70;;
75744;SDS011;64359;51.366;-0.222;2023-05-01T00:59:07;4.70;;;4.30;;
75744;SDS011;64359;51.366;-0.222;2023-05-01T01:00:13;3.90;;;3.60;;
75744;SDS011;64359;51.366;-0.222;2023-05-01T01:01:19;4.20;;;3.80;;
75744;SDS011;64359;51.366;-0.222;2023-05-01T01:02:24;4.70;;;4.30;;
75744;SDS011;64359;51.366;-0.222;2023-05-01T01:03:28;4.30;;;3.90;;
75744;SDS011;64359;51.366;-0.222;2023-05-01T01:04:33;4.80;;;4.40;;
75744;SDS011;64359;51.366;-0.222;2023-05-01T01:05:41;4.50;;;4.10;;
75744;SDS011;64359;51.366;-0.222;2023-05-01T01:06:51;3.90;;;3.60;;
75744;SDS011;64359;51.366;-0.222;2023-05-01T01:08:02;4.60;;;4.20;;
75744;SDS011;64359;51.366;-0.222;2023-05-01T01:09:15;4.50;;;4.10;;
75744;SDS011;64359;51.366;-0.222;2023-05-01T01:10:26;4.30;;;3.90;;
75744;SDS011;64359;51.366;-0.222;2023-05-01T01:11:39;4.00;;;3.60;;
75744;SDS011;64359;51.366;-0.222;2023-05-01T01:12:50;4.60;;;4.20;;
75744;SDS011;64359;51.366;-0.222;2023-05-01T01:14:02;3.50;;;3.20;;
75744;SDS011;64359;51.366;-0.222;2023-05-01T01:15:12;3.70;;;3.30;;
75744;SDS011;64359;51.366;-0.222;2023-05-01T01:16:22;4.50;;;4.10;;
75744;SDS011;64359;51.366;-0.222;2023-05-01T01:17:36;4.60;;;4.20;;
75744;SDS011;64359;51.366;-0.222;2023-05-01T01:18:47;4.00;;;3.60;;
75744;SDS011;64359;51.366;-0.222;2023-05-01T01:20:03;4.30;;;3.90;;
75744;SDS011;64359;51.366;-0.222;2023-05-01T01:21:26;4.80;;;4.30;;
75744;SDS011;64359;51.366;-0.222;2023-05-01T01:22:36;4.60;;;4.20;;
75744;SDS011;64359;51.366;-0.222;2023-05-01T01:23:49;4.50;;;4.10;;
75744;SDS011;64359;51.366;-0.222;2023-05-01T01:25:12;3.90;;;3.50;;
75744;SDS011;64359;51.366;-0.222;2023-05-01T01:26:38;4.60;;;4.20;;
75744;SDS011;64359;51.366;-0.222;2023-05-01T01:28:10;4.20;;;3.90;;
75744;SDS011;64359;51.366;-0.222;2023-05-01T01:31:03;4.40;;;4.10;;
75744;SDS011;64359;51.366;-0.222;2023-05-01T01:32:21;4.80;;;4.40;;
75744;SDS011;64359;51.366;-0.222;2023-05-01T01:33:54;4.60;;;4.20;;
75744;SDS011;64359;51.366;-0.222;2023-05-01T01:35:05;4.60;;;4.20;;
75744;SDS011;64359;51.366;-0.222;2023-05-01T01:36:15;4.60;;;4.10;;
75744;SDS011;64359;51.366;-0.222;2023-05-01T01:37:24;4.80;;;4.30;;
75744;SDS011;64359;51.366;-0.222;2023-05-01T01:38:33;4.90;;;4.40;;
75744;SDS011;64359;51.366;-0.222;2023-05-01T01:39:44;4.80;;;4.20;;
75744;SDS011;64359;51.366;-0.222;2023-05-01T01:40:52;3.90;;;3.60;;
75744;SDS011;64359;51.366;-0.222;2023-05-01T01:42:01;4.80;;;4.40;;
75744;SDS011;64359;51.366;-0.222;2023-05-01T01:43:11;4.20;;;3.90;;
75744;SDS011;64359;51.366;-0.222;2023-05-01T01:44:22;4.10;;;3.70;;
75744;SDS011;64359;51.366;-0.222;2023-05-01T01:45:33;5.20;;;4.80;;
75744;SDS011;64359;51.366;-0.222;2023-05-01T01:47:44;4.40;;;4.00;;
75744;SDS011;64359;51.366;-0.222;2023-05-01T01:48:51;4.50;;;3.70;;
75744;SDS011;64359;51.366;-0.222;2023-05-01T01:49:58;5.00;;;4.60;;
75744;SDS011;64359;51.366;-0.222;2023-05-01T01:51:07;4.60;;;4.20;;
75744;SDS011;64359;51.366;-0.222;2023-05-01T01:52:14;4.50;;;4.10;;
75744;SDS011;64359;51.366;-0.222;2023-05-01T01:53:20;4.40;;;4.00;;
75744;SDS011;64359;51.366;-0.222;2023-05-01T01:54:28;4.80;;;3.90;;
75744;SDS011;64359;51.366;-0.222;2023-05-01T01:55:35;4.20;;;3.80;;
75744;SDS011;64359;51.366;-0.222;2023-05-01T01:56:40;4.60;;;4.20;;
75744;SDS011;64359;51.366;-0.222;2023-05-01T01:57:47;4.60;;;4.20;;
75744;SDS011;64359;51.366;-0.222;2023-05-01T01:58:53;5.40;;;4.90;;
75744;SDS011;64359;51.366;-0.222;2023-05-01T01:59:59;4.90;;;4.50;;
75744;SDS011;64359;51.366;-0.222;2023-05-01T02:01:09;4.20;;;3.70;;
75744;SDS011;64359;51.366;-0.222;2023-05-01T02:02:16;4.90;;;4.50;;
75744;SDS011;64359;51.366;-0.222;2023-05-01T02:03:21;4.90;;;3.80;;
75744;SDS011;64359;51.366;-0.222;2023-05-01T02:04:27;4.50;;;4.10;;
75744;SDS011;64359;51.366;-0.222;2023-05-01T02:05:33;5.40;;;4.90;;
75744;SDS011;64359;51.366;-0.222;2023-05-01T02:06:39;4.40;;;4.00;;
75744;SDS011;64359;51.366;-0.222;2023-05-01T02:07:46;3.90;;;3.60;;
75744;SDS011;64359;51.366;-0.222;2023-05-01T02:08:52;5.50;;;5.00;;
75744;SDS011;64359;51.366;-0.222;2023-05-01T02:09:58;4.10;;;3.80;;
75744;SDS011;64359;51.366;-0.222;2023-05-01T02:11:05;4.80;;;4.40;;
75744;SDS011;64359;51.366;-0.222;2023-05-01T02:12:13;4.40;;;4.00;;
75744;SDS011;64359;51.366;-0.222;2023-05-01T02:13:19;4.90;;;4.50;;
75744;SDS011;64359;51.366;-0.222;2023-05-01T02:14:25;5.00;;;4.60;;
75744;SDS011;64359;51.366;-0.222;2023-05-01T02:15:30;5.40;;;4.90;;
75744;SDS011;64359;51.366;-0.222;2023-05-01T02:16:35;3.80;;;3.50;;
75744;SDS011;64359;51.366;-0.222;2023-05-01T02:17:41;4.60;;;4.20;;
75744;SDS011;64359;51.366;-0.222;2023-05-01T02:18:46;5.30;;;4.90;;
75744;SDS011;64359;51.366;-0.222;2023-05-01T02:19:51;4.20;;;3.80;;
75744;SDS011;64359;51.366;-0.222;2023-05-01T02:20:57;4.50;;;4.10;;
75744;SDS011;64359;51.366;-0.222;2023-05-01T02:22:03;4.90;;;4.50;;
75744;SDS011;64359;51.366;-0.222;2023-05-01T02:23:08;4.60;;;4.10;;
75744;SDS011;64359;51.366;-0.222;2023-05-01T02:24:14;5.30;;;4.80;;
75744;SDS011;64359;51.366;-0.222;2023-05-01T02:25:19;5.30;;;4.80;;
75744;SDS011;64359;51.366;-0.222;2023-05-01T02:26:24;5.60;;;5.10;;
75744;SDS011;64359;51.366;-0.222;2023-05-01T02:27:31;4.60;;;4.20;;
75744;SDS011;64359;51.366;-0.222;2023-05-01T02:28:40;4.50;;;4.10;;
75744;SDS011;64359;51.366;-0.222;2023-05-01T02:29:44;5.20;;;4.70;;
75744;SDS011;64359;51.366;-0.222;2023-05-01T02:30:49;4.50;;;4.10;;
75744;SDS011;64359;51.366;-0.222;2023-05-01T02:31:53;5.40;;;4.80;;
75744;SDS011;64359;51.366;-0.222;2023-05-01T02:32:58;4.70;;;4.20;;
75744;SDS011;64359;51.366;-0.222;2023-05-01T02:34:02;4.40;;;4.00;;
75744;SDS011;64359;51.366;-0.222;2023-05-01T02:35:07;5.10;;;4.10;;
75744;SDS011;64359;51.366;-0.222;2023-05-01T02:36:12;4.40;;;4.00;;
75744;SDS011;64359;51.366;-0.222;2023-05-01T02:37:16;4.40;;;3.90;;
75744;SDS011;64359;51.366;-0.222;2023-05-01T02:38:20;4.70;;;4.20;;
75744;SDS011;64359;51.366;-0.222;2023-05-01T02:39:25;5.10;;;4.70;;
75744;SDS011;64359;51.366;-0.222;2023-05-01T02:40:29;5.30;;;4.90;;
75744;SDS011;64359;51.366;-0.222;2023-05-01T02:41:35;4.90;;;4.40;;
75744;SDS011;64359;51.366;-0.222;2023-05-01T02:42:41;5.30;;;4.90;;
75744;SDS011;64359;51.366;-0.222;2023-05-01T02:43:47;5.50;;;5.00;;
75744;SDS011;64359;51.366;-0.222;2023-05-01T02:46:03;5.10;;;4.60;;
75744;SDS011;64359;51.366;-0.222;2023-05-01T02:47:08;5.30;;;4.80;;
75744;SDS011;64359;51.366;-0.222;2023-05-01T02:48:17;5.50;;;5.00;;
75744;SDS011;64359;51.366;-0.222;2023-05-01T02:49:24;4.90;;;4.40;;
75744;SDS011;64359;51.366;-0.222;2023-05-01T02:50:29;4.60;;;4.10;;
75744;SDS011;64359;51.366;-0.222;2023-05-01T02:51:34;4.70;;;4.20;;
75744;SDS011;64359;51.366;-0.222;2023-05-01T02:52:40;5.10;;;4.60;;
75744;SDS011;64359;51.366;-0.222;2023-05-01T02:53:45;5.00;;;4.50;;
75744;SDS011;64359;51.366;-0.222;2023-05-01T02:54:50;5.30;;;4.80;;
75744;SDS011;64359;51.366;-0.222;2023-05-01T02:55:54;5.40;;;5.00;;
75744;SDS011;64359;51.366;-0.222;2023-05-01T02:56:59;4.70;;;4.30;;
75744;SDS011;64359;51.366;-0.222;2023-05-01T02:58:07;4.70;;;4.30;;
75744;SDS011;64359;51.366;-0.222;2023-05-01T02:59:16;4.80;;;4.40;;
75744;SDS011;64359;51.366;-0.222;2023-05-01T03:00:20;5.10;;;4.50;;
75744;SDS011;64359;51.366;-0.222;2023-05-01T03:01:25;4.90;;;4.20;;
75744;SDS011;64359;51.366;-0.222;2023-05-01T03:02:30;4.70;;;4.30;;
75744;SDS011;64359;51.366;-0.222;2023-05-01T03:03:34;6.40;;;5.20;;
75744;SDS011;64359;51.366;-0.222;2023-05-01T03:04:39;5.90;;;5.00;;
75744;SDS011;64359;51.366;-0.222;2023-05-01T03:05:44;4.80;;;4.30;;
75744;SDS011;64359;51.366;-0.222;2023-05-01T03:06:49;4.40;;;4.00;;
75744;SDS011;64359;51.366;-0.222;2023-05-01T03:07:53;5.90;;;5.40;;
75744;SDS011;64359;51.366;-0.222;2023-05-01T03:08:57;6.40;;;5.90;;
75744;SDS011;64359;51.366;-0.222;2023-05-01T03:10:02;5.70;;;5.20;;
75744;SDS011;64359;51.366;-0.222;2023-05-01T03:11:08;5.40;;;4.90;;
75744;SDS011;64359;51.366;-0.222;2023-05-01T03:12:12;5.40;;;4.90;;
75744;SDS011;64359;51.366;-0.222;2023-05-01T03:13:17;5.30;;;4.80;;
75744;SDS011;64359;51.366;-0.222;2023-05-01T03:14:22;4.70;;;4.20;;
75744;SDS011;64359;51.366;-0.222;2023-05-01T03:15:28;6.00;;;5.50;;
75744;SDS011;64359;51.366;-0.222;2023-05-01T03:16:33;5.50;;;5.00;;
75744;SDS011;64359;51.366;-0.222;2023-05-01T03:17:37;4.70;;;4.30;;
75744;SDS011;64359;51.366;-0.222;2023-05-01T03:18:42;5.10;;;4.60;;
75744;SDS011;64359;51.366;-0.222;2023-05-01T03:19:46;5.50;;;4.80;;
75744;SDS011;64359;51.366;-0.222;2023-05-01T03:20:52;4.60;;;4.20;;
75744;SDS011;64359;51.366;-0.222;2023-05-01T03:21:58;4.90;;;4.50;;
75744;SDS011;64359;51.366;-0.222;2023-05-01T03:23:02;5.40;;;4.80;;
75744;SDS011;64359;51.366;-0.222;2023-05-01T03:24:08;4.40;;;4.00;;
75744;SDS011;64359;51.366;-0.222;2023-05-01T03:25:12;5.30;;;4.80;;
75744;SDS011;64359;51.366;-0.222;2023-05-01T03:26:16;4.80;;;4.30;;
75744;SDS011;64359;51.366;-0.222;2023-05-01T03:27:21;4.50;;;4.10;;
75744;SDS011;64359;51.366;-0.222;2023-05-01T03:28:25;4.60;;;4.00;;
75744;SDS011;64359;51.366;-0.222;2023-05-01T03:29:29;6.00;;;5.50;;
75744;SDS011;64359;51.366;-0.222;2023-05-01T03:30:34;5.70;;;5.20;;
75744;SDS011;64359;51.366;-0.222;2023-05-01T03:31:38;5.30;;;4.80;;
75744;SDS011;64359;51.366;-0.222;2023-05-01T03:32:43;4.80;;;4.30;;
75744;SDS011;64359;51.366;-0.222;2023-05-01T03:33:47;5.60;;;5.10;;
75744;SDS011;64359;51.366;-0.222;2023-05-01T03:34:51;4.90;;;4.40;;
75744;SDS011;64359;51.366;-0.222;2023-05-01T03:35:59;5.40;;;4.90;;
75744;SDS011;64359;51.366;-0.222;2023-05-01T03:37:04;5.10;;;4.60;;
75744;SDS011;64359;51.366;-0.222;2023-05-01T03:38:08;4.40;;;4.00;;
75744;SDS011;64359;51.366;-0.222;2023-05-01T03:39:13;5.40;;;4.30;;
75744;SDS011;64359;51.366;-0.222;2023-05-01T03:40:17;5.70;;;5.10;;
75744;SDS011;64359;51.366;-0.222;2023-05-01T03:41:22;5.10;;;4.50;;
75744;SDS011;64359;51.366;-0.222;2023-05-01T03:42:26;4.40;;;4.00;;
75744;SDS011;64359;51.366;-0.222;2023-05-01T03:43:31;5.50;;;4.90;;
75744;SDS011;64359;51.366;-0.222;2023-05-01T03:44:35;5.20;;;4.70;;
75744;SDS011;64359;51.366;-0.222;2023-05-01T03:45:39;4.90;;;4.30;;
75744;SDS011;64359;51.366;-0.222;2023-05-01T03:46:44;4.70;;;4.10;;
75744;SDS011;64359;51.366;-0.222;2023-05-01T03:47:48;5.30;;;4.80;;
75744;SDS011;64359;51.366;-0.222;2023-05-01T03:48:53;5.40;;;4.90;;
75744;SDS011;64359;51.366;-0.222;2023-05-01T03:49:57;4.90;;;4.40;;
75744;SDS011;64359;51.366;-0.222;2023-05-01T03:51:02;6.80;;;6.10;;
75744;SDS011;64359;51.366;-0.222;2023-05-01T03:52:07;5.50;;;5.00;;
75744;SDS011;64359;51.366;-0.222;2023-05-01T03:53:12;4.50;;;4.10;;
75744;SDS011;64359;51.366;-0.222;2023-05-01T03:54:17;5.70;;;5.10;;
75744;SDS011;64359;51.366;-0.222;2023-05-01T03:55:21;5.50;;;5.00;;
75744;SDS011;64359;51.366;-0.222;2023-05-01T03:56:25;5.40;;;4.90;;
75744;SDS011;64359;51.366;-0.222;2023-05-01T03:57:35;5.40;;;5.00;;
75744;SDS011;64359;51.366;-0.222;2023-05-01T03:58:40;4.90;;;4.30;;
75744;SDS011;64359;51.366;-0.222;2023-05-01T03:59:44;5.10;;;4.60;;
75744;SDS011;64359;51.366;-0.222;2023-05-01T04:00:48;4.90;;;4.20;;
75744;SDS011;64359;51.366;-0.222;2023-05-01T04:01:53;5.00;;;4.40;;
75744;SDS011;64359;51.366;-0.222;2023-05-01T04:02:57;5.60;;;5.10;;
75744;SDS011;64359;51.366;-0.222;2023-05-01T04:04:01;5.40;;;4.70;;
75744;SDS011;64359;51.366;-0.222;2023-05-01T04:05:06;6.00;;;5.00;;
75744;SDS011;64359;51.366;-0.222;2023-05-01T04:06:11;5.50;;;4.80;;
75744;SDS011;64359;51.366;-0.222;2023-05-01T04:07:17;5.80;;;5.30;;
75744;SDS011;64359;51.366;-0.222;2023-05-01T04:08:21;5.90;;;5.40;;
75744;SDS011;64359;51.366;-0.222;2023-05-01T04:09:26;5.10;;;4.60;;
75744;SDS011;64359;51.366;-0.222;2023-05-01T04:10:31;6.40;;;5.80;;
75744;SDS011;64359;51.366;-0.222;2023-05-01T04:11:35;5.40;;;4.90;;
75744;SDS011;64359;51.366;-0.222;2023-05-01T04:12:39;5.60;;;5.10;;
75744;SDS011;64359;51.366;-0.222;2023-05-01T04:13:44;4.90;;;4.40;;
75744;SDS011;64359;51.366;-0.222;2023-05-01T04:14:48;5.10;;;4.40;;
75744;SDS011;64359;51.366;-0.222;2023-05-01T04:15:53;5.80;;;5.20;;
75744;SDS011;64359;51.366;-0.222;2023-05-01T04:16:59;5.40;;;4.90;;
75744;SDS011;64359;51.366;-0.222;2023-05-01T04:18:04;5.50;;;5.00;;
75744;SDS011;64359;51.366;-0.222;2023-05-01T04:19:08;5.20;;;4.70;;
75744;SDS011;64359;51.366;-0.222;2023-05-01T04:20:12;5.40;;;4.90;;
75744;SDS011;64359;51.366;-0.222;2023-05-01T04:21:19;4.80;;;4.30;;
75744;SDS011;64359;51.366;-0.222;2023-05-01T04:22:24;5.70;;;5.10;;
75744;SDS011;64359;51.366;-0.222;2023-05-01T04:23:28;5.90;;;5.30;;
75744;SDS011;64359;51.366;-0.222;2023-05-01T04:24:32;5.10;;;4.60;;
75744;SDS011;64359;51.366;-0.222;2023-05-01T04:25:37;5.60;;;5.10;;
75744;SDS011;64359;51.366;-0.222;2023-05-01T04:26:42;5.40;;;4.30;;
75744;SDS011;64359;51.366;-0.222;2023-05-01T04:27:46;4.90;;;4.40;;
75744;SDS011;64359;51.366;-0.222;2023-05-01T04:28:51;5.90;;;5.30;;
75744;SDS011;64359;51.366;-0.222;2023-05-01T04:29:55;5.50;;;4.90;;
75744;SDS011;64359;51.366;-0.222;2023-05-01T04:30:59;5.00;;;4.50;;
75744;SDS011;64359;51.366;-0.222;2023-05-01T04:32:04;6.50;;;5.90;;
75744;SDS011;64359;51.366;-0.222;2023-05-01T04:33:08;5.50;;;5.00;;
75744;SDS011;64359;51.366;-0.222;2023-05-01T04:34:13;5.50;;;5.00;;
75744;SDS011;64359;51.366;-0.222;2023-05-01T04:35:17;4.70;;;4.20;;
75744;SDS011;64359;51.366;-0.222;2023-05-01T04:36:22;5.60;;;5.10;;
75744;SDS011;64359;51.366;-0.222;2023-05-01T04:37:26;5.00;;;4.50;;
75744;SDS011;64359;51.366;-0.222;2023-05-01T04:38:31;4.80;;;4.30;;
75744;SDS011;64359;51.366;-0.222;2023-05-01T04:39:37;5.50;;;5.00;;
75744;SDS011;64359;51.366;-0.222;2023-05-01T04:40:41;5.20;;;4.70;;
75744;SDS011;64359;51.366;-0.222;2023-05-01T04:41:46;4.30;;;3.90;;
75744;SDS011;64359;51.366;-0.222;2023-05-01T04:42:50;5.10;;;4.60;;
75744;SDS011;64359;51.366;-0.222;2023-05-01T04:43:55;4.70;;;4.10;;
75744;SDS011;64359;51.366;-0.222;2023-05-01T04:44:59;6.00;;;5.40;;
75744;SDS011;64359;51.366;-0.222;2023-05-01T04:46:04;5.20;;;4.70;;
75744;SDS011;64359;51.366;-0.222;2023-05-01T04:47:08;5.30;;;4.80;;
75744;SDS011;64359;51.366;-0.222;2023-05-01T04:48:13;5.40;;;4.40;;
75744;SDS011;64359;51.366;-0.222;2023-05-01T04:49:17;4.90;;;4.40;;
75744;SDS011;64359;51.366;-0.222;2023-05-01T04:50:22;4.90;;;4.40;;
75744;SDS011;64359;51.366;-0.222;2023-05-01T04:51:27;4.70;;;3.70;;
75744;SDS011;64359;51.366;-0.222;2023-05-01T04:52:31;5.00;;;4.50;;
75744;SDS011;64359;51.366;-0.222;2023-05-01T04:53:36;4.60;;;4.10;;
75744;SDS011;64359;51.366;-0.222;2023-05-01T04:54:40;5.10;;;4.50;;
75744;SDS011;64359;51.366;-0.222;2023-05-01T04:55:44;4.30;;;3.90;;
75744;SDS011;64359;51.366;-0.222;2023-05-01T04:56:49;5.40;;;4.90;;
75744;SDS011;64359;51.366;-0.222;2023-05-01T04:57:53;5.50;;;4.00;;
75744;SDS011;64359;51.366;-0.222;2023-05-01T04:58:58;5.30;;;4.80;;
75744;SDS011;64359;51.366;-0.222;2023-05-01T05:00:02;4.90;;;4.20;;
75744;SDS011;64359;51.366;-0.222;2023-05-01T05:01:08;4.70;;;4.20;;
75744;SDS011;64359;51.366;-0.222;2023-05-01T05:02:12;4.10;;;3.70;;
75744;SDS011;64359;51.366;-0.222;2023-05-01T05:03:16;4.50;;;4.10;;
75744;SDS011;64359;51.366;-0.222;2023-05-01T05:04:21;4.80;;;4.40;;
75744;SDS011;64359;51.366;-0.222;2023-05-01T05:05:25;4.10;;;3.40;;
75744;SDS011;64359;51.366;-0.222;2023-05-01T05:06:29;4.70;;;4.20;;
75744;SDS011;64359;51.366;-0.222;2023-05-01T05:07:34;4.60;;;4.00;;
75744;SDS011;64359;51.366;-0.222;2023-05-01T05:08:38;4.60;;;4.20;;
75744;SDS011;64359;51.366;-0.222;2023-05-01T05:09:42;4.30;;;3.90;;
75744;SDS011;64359;51.366;-0.222;2023-05-01T05:10:47;4.30;;;3.70;;
75744;SDS011;64359;51.366;-0.222;2023-05-01T05:11:51;4.00;;;3.10;;
75744;SDS011;64359;51.366;-0.222;2023-05-01T05:12:55;3.80;;;3.50;;
75744;SDS011;64359;51.366;-0.222;2023-05-01T05:14:00;4.20;;;3.80;;
75744;SDS011;64359;51.366;-0.222;2023-05-01T05:15:05;4.60;;;4.20;;
75744;SDS011;64359;51.366;-0.222;2023-05-01T05:16:10;4.60;;;4.20;;
75744;SDS011;64359;51.366;-0.222;2023-05-01T05:17:15;3.70;;;3.30;;
75744;SDS011;64359;51.366;-0.222;2023-05-01T05:18:19;4.20;;;3.60;;
75744;SDS011;64359;51.366;-0.222;2023-05-01T05:19:24;3.90;;;3.60;;
75744;SDS011;64359;51.366;-0.222;2023-05-01T05:20:28;4.40;;;4.00;;
75744;SDS011;64359;51.366;-0.222;2023-05-01T05:21:33;4.00;;;3.60;;
75744;SDS011;64359;51.366;-0.222;2023-05-01T05:22:38;3.30;;;3.00;;
75744;SDS011;64359;51.366;-0.222;2023-05-01T05:23:42;3.70;;;3.30;;
75744;SDS011;64359;51.366;-0.222;2023-05-01T05:24:47;3.70;;;3.30;;
75744;SDS011;64359;51.366;-0.222;2023-05-01T05:26:00;3.80;;;3.40;;
75744;SDS011;64359;51.366;-0.222;2023-05-01T05:27:06;4.20;;;3.80;;
75744;SDS011;64359;51.366;-0.222;2023-05-01T05:28:10;4.10;;;3.70;;
75744;SDS011;64359;51.366;-0.222;2023-05-01T05:29:15;4.10;;;3.70;;
75744;SDS011;64359;51.366;-0.222;2023-05-01T05:30:20;3.30;;;3.00;;
75744;SDS011;64359;51.366;-0.222;2023-05-01T05:31:24;3.10;;;2.80;;
75744;SDS011;64359;51.366;-0.222;2023-05-01T05:32:29;3.90;;;3.50;;
75744;SDS011;64359;51.366;-0.222;2023-05-01T05:33:34;3.70;;;3.30;;
75744;SDS011;64359;51.366;-0.222;2023-05-01T05:34:39;3.10;;;2.80;;
75744;SDS011;64359;51.366;-0.222;2023-05-01T05:35:43;3.20;;;2.90;;
75744;SDS011;64359;51.366;-0.222;2023-05-01T05:36:48;4.60;;;3.50;;
75744;SDS011;64359;51.366;-0.222;2023-05-01T05:37:52;4.30;;;3.90;;
75744;SDS011;64359;51.366;-0.222;2023-05-01T05:38:57;3.80;;;3.40;;
75744;SDS011;64359;51.366;-0.222;2023-05-01T05:40:02;3.80;;;3.50;;
75744;SDS011;64359;51.366;-0.222;2023-05-01T05:41:07;4.20;;;3.80;;
75744;SDS011;64359;51.366;-0.222;2023-05-01T05:42:11;3.70;;;3.10;;
75744;SDS011;64359;51.366;-0.222;2023-05-01T05:43:16;3.80;;;3.40;;
75744;SDS011;64359;51.366;-0.222;2023-05-01T05:44:20;3.30;;;2.90;;
75744;SDS011;64359;51.366;-0.222;2023-05-01T05:45:25;3.60;;;3.30;;
75744;SDS011;64359;51.366;-0.222;2023-05-01T05:46:29;2.70;;;2.50;;
75744;SDS011;64359;51.366;-0.222;2023-05-01T05:47:34;4.00;;;3.60;;
75744;SDS011;64359;51.366;-0.222;2023-05-01T05:48:38;3.60;;;3.30;;
75744;SDS011;64359;51.366;-0.222;2023-05-01T05:49:43;3.90;;;3.60;;
75744;SDS011;64359;51.366;-0.222;2023-05-01T05:50:47;3.80;;;2.90;;
75744;SDS011;64359;51.366;-0.222;2023-05-01T05:51:53;3.30;;;2.70;;
75744;SDS011;64359;51.366;-0.222;2023-05-01T05:52:57;3.50;;;3.20;;
75744;SDS011;64359;51.366;-0.222;2023-05-01T05:54:01;3.60;;;3.20;;
75744;SDS011;64359;51.366;-0.222;2023-05-01T05:55:07;2.80;;;2.60;;
75744;SDS011;64359;51.366;-0.222;2023-05-01T05:56:12;4.30;;;3.20;;
75744;SDS011;64359;51.366;-0.222;2023-05-01T05:57:16;3.60;;;3.30;;
75744;SDS011;64359;51.366;-0.222;2023-05-01T05:58:21;3.50;;;3.10;;
75744;SDS011;64359;51.366;-0.222;2023-05-01T05:59:25;3.60;;;3.10;;
75744;SDS011;64359;51.366;-0.222;2023-05-01T06:00:29;3.20;;;2.50;;
75744;SDS011;64359;51.366;-0.222;2023-05-01T06:01:33;2.90;;;2.70;;
75744;SDS011;64359;51.366;-0.222;2023-05-01T06:02:39;3.00;;;2.50;;
75744;SDS011;64359;51.366;-0.222;2023-05-01T06:03:44;3.60;;;3.10;;
75744;SDS011;64359;51.366;-0.222;2023-05-01T06:04:48;4.00;;;2.70;;
75744;SDS011;64359;51.366;-0.222;2023-05-01T06:05:52;9.80;;;2.70;;
75744;SDS011;64359;51.366;-0.222;2023-05-01T06:06:57;3.30;;;3.00;;
75744;SDS011;64359;51.366;-0.222;2023-05-01T06:08:03;4.90;;;3.00;;
75744;SDS011;64359;51.366;-0.222;2023-05-01T06:09:07;4.00;;;2.50;;
75744;SDS011;64359;51.366;-0.222;2023-05-01T06:10:13;3.90;;;3.00;;
75744;SDS011;64359;51.366;-0.222;2023-05-01T06:11:17;5.00;;;2.80;;
75744;SDS011;64359;51.366;-0.222;2023-05-01T06:12:22;3.30;;;2.40;;
75744;SDS011;64359;51.366;-0.222;2023-05-01T06:13:27;3.80;;;2.90;;
75744;SDS011;64359;51.366;-0.222;2023-05-01T06:14:31;3.30;;;3.00;;
75744;SDS011;64359;51.366;-0.222;2023-05-01T06:15:36;3.50;;;2.30;;
75744;SDS011;64359;51.366;-0.222;2023-05-01T06:16:40;4.50;;;2.40;;
75744;SDS011;64359;51.366;-0.222;2023-05-01T06:17:45;3.00;;;2.20;;
75744;SDS011;64359;51.366;-0.222;2023-05-01T06:18:49;3.10;;;2.80;;
75744;SDS011;64359;51.366;-0.222;2023-05-01T06:19:54;4.40;;;3.00;;
75744;SDS011;64359;51.366;-0.222;2023-05-01T06:20:58;3.80;;;2.10;;
75744;SDS011;64359;51.366;-0.222;2023-05-01T06:22:02;4.80;;;3.10;;
75744;SDS011;64359;51.366;-0.222;2023-05-01T06:23:08;5.70;;;2.70;;
75744;SDS011;64359;51.366;-0.222;2023-05-01T06:24:14;4.30;;;2.10;;
75744;SDS011;64359;51.366;-0.222;2023-05-01T06:25:19;4.30;;;2.40;;
75744;SDS011;64359;51.366;-0.222;2023-05-01T06:26:24;4.40;;;2.40;;
75744;SDS011;64359;51.366;-0.222;2023-05-01T06:27:28;5.80;;;2.30;;
75744;SDS011;64359;51.366;-0.222;2023-05-01T06:28:33;4.90;;;2.60;;
75744;SDS011;64359;51.366;-0.222;2023-05-01T06:29:37;7.30;;;2.20;;
75744;SDS011;64359;51.366;-0.222;2023-05-01T06:30:42;4.40;;;2.70;;
75744;SDS011;64359;51.366;-0.222;2023-05-01T06:31:46;4.10;;;2.10;;
75744;SDS011;64359;51.366;-0.222;2023-05-01T06:32:51;6.10;;;2.30;;
75744;SDS011;64359;51.366;-0.222;2023-05-01T06:33:55;3.40;;;2.30;;